Mississippi Enterprise — WDE2542 — position and weather

sailwx.info

Track history (hours):
 
Tides and Currents Weather Stations Pressure Air Temp Water Temp Dewpoint Dewpoint Depression Visibility Wind Speed Wind Dir Waves Ship Positions

Mississippi Enterprise

Owner: U.S. United Ocean Services, LLC, Tampa, FL. More information available from US FCC via Universal Licensing System and Coast Guard Vessel Documentation Center.

Last reported at 2014-Oct-24 05:28 UTC. Time now 2014-Oct-25 22:52 UTC.
Position N 29°57' W 090°01'.

Length 187 m; draft 9.4 m.

Type: Cargo ship. MMSI: 369813000.

Date/timePositionNaut miles runAvg speedWind from/ knotsBaromVisibWave heightAir tempDewpointWater temp
2014-Oct-24 05:28N 29°57' W 090°01'3110.5
2014-Oct-24 02:33N 30°02' W 090°36'0 0.0
2014-Oct-23 14:19N 30°03' W 090°36'0 0.0
2014-Oct-23 13:31N 30°03' W 090°36'0 0.0
2014-Oct-23 12:31N 30°03' W 090°36'0 0.0
2014-Oct-23 11:28N 30°03' W 090°36'0 0.0
2014-Oct-23 10:28N 30°03' W 090°36'0 0.0
2014-Oct-23 09:28N 30°03' W 090°36'0 0.0
2014-Oct-23 08:31N 30°03' W 090°36'0 0.0
2014-Oct-23 07:28N 30°03' W 090°36'0 0.0
2014-Oct-23 06:31N 30°03' W 090°36'0 0.0
2014-Oct-23 03:28N 30°03' W 090°36'0 0.0
2014-Oct-23 00:19N 30°03' W 090°36'0 0.0
2014-Oct-22 14:13N 30°03' W 090°36'0 0.0
2014-Oct-22 13:31N 30°03' W 090°36'0 0.0
2014-Oct-22 12:31N 30°03' W 090°36'0 0.0
2014-Oct-22 08:28N 30°03' W 090°36'0 0.0
2014-Oct-22 05:19N 30°03' W 090°36'0 0.0
2014-Oct-21 12:25N 30°03' W 090°36'0 0.0
2014-Oct-21 11:31N 30°03' W 090°36'0 0.0
2014-Oct-21 10:28N 30°03' W 090°36'0 0.0
2014-Oct-21 09:28N 30°03' W 090°36'0 0.0
2014-Oct-21 08:31N 30°03' W 090°36'0 0.0
2014-Oct-21 07:31N 30°03' W 090°36'0 0.0
2014-Oct-21 06:28N 30°03' W 090°36'0 0.0
2014-Oct-21 04:04N 30°03' W 090°36'0 0.0
2014-Oct-21 03:28N 30°03' W 090°36'429 9.8
2014-Oct-19 07:33N 27°36' W 082°56'1312.7
2014-Oct-19 06:33N 27°37' W 082°42'1211.7
2014-Oct-19 05:33N 27°44' W 082°32'1010.2
2014-Oct-19 04:33N 27°53' W 082°26'2 1.9
2014-Oct-19 03:33N 27°55' W 082°25'0 0.0
2014-Oct-19 02:33N 27°55' W 082°25'0 0.0
2014-Oct-19 01:33N 27°55' W 082°25'0 0.0
2014-Oct-19 00:34N 27°55' W 082°25'0 0.0
2014-Oct-18 23:33N 27°55' W 082°25'0 0.0
2014-Oct-18 22:33N 27°55' W 082°25'0 0.0
2014-Oct-18 21:33N 27°55' W 082°25'0 0.0
2014-Oct-18 20:34N 27°55' W 082°25'0 0.0
2014-Oct-18 19:33N 27°55' W 082°25'0 0.0
2014-Oct-18 18:33N 27°55' W 082°25'0 0.0
2014-Oct-18 17:33N 27°55' W 082°25'0 0.0
2014-Oct-18 16:33N 27°55' W 082°25'0 0.0
2014-Oct-18 15:33N 27°55' W 082°25'0 0.0
2014-Oct-18 14:33N 27°55' W 082°25'0 0.0
2014-Oct-18 13:33N 27°55' W 082°25'0 0.0
2014-Oct-18 12:33N 27°55' W 082°25'0 0.0
2014-Oct-18 11:33N 27°55' W 082°25'0 0.0
2014-Oct-18 10:34N 27°55' W 082°25'0 0.0
2014-Oct-18 09:33N 27°55' W 082°25'0 0.0
2014-Oct-18 08:33N 27°55' W 082°25'0 0.0
2014-Oct-18 07:33N 27°55' W 082°25'0 0.0
2014-Oct-18 06:33N 27°55' W 082°25'0 0.0
2014-Oct-18 05:33N 27°55' W 082°25'0 0.0
2014-Oct-18 04:33N 27°55' W 082°25'0 0.0
2014-Oct-18 03:34N 27°55' W 082°25'0 0.0
2014-Oct-18 02:33N 27°55' W 082°25'0 0.0
2014-Oct-18 01:33N 27°55' W 082°25'0 0.0
2014-Oct-18 00:33N 27°55' W 082°25'0 0.0
2014-Oct-17 23:33N 27°55' W 082°25'0 0.2
2014-Oct-17 22:33N 27°55' W 082°25'0 0.0
2014-Oct-17 21:33N 27°55' W 082°25'0 0.0
2014-Oct-17 20:33N 27°55' W 082°25'0 0.0
2014-Oct-17 19:33N 27°55' W 082°25'0 0.0
2014-Oct-17 18:33N 27°55' W 082°25'0 0.0
2014-Oct-17 17:33N 27°55' W 082°25'0 0.0
2014-Oct-17 16:34N 27°55' W 082°25'0 0.0
2014-Oct-17 15:33N 27°55' W 082°25'0 0.0
2014-Oct-17 14:33N 27°55' W 082°25'1 0.9
2014-Oct-17 13:33N 27°54' W 082°26'6 6.1
2014-Oct-17 12:33N 27°48' W 082°25'1 0.6
2014-Oct-17 11:31N 27°48' W 082°25'0 0.0
2014-Oct-17 10:31N 27°48' W 082°25'0 0.0
2014-Oct-17 09:31N 27°48' W 082°25'0 0.0
2014-Oct-17 08:31N 27°48' W 082°25'0 0.0
2014-Oct-17 07:31N 27°48' W 082°25'0 0.0
2014-Oct-17 06:31N 27°48' W 082°25'0 0.0
2014-Oct-17 05:31N 27°48' W 082°25'0 0.0
2014-Oct-17 04:31N 27°48' W 082°25'0 0.0
2014-Oct-17 03:31N 27°48' W 082°25'0 0.0
2014-Oct-17 02:31N 27°48' W 082°25'0 0.0
2014-Oct-17 01:31N 27°48' W 082°25'0 0.0
2014-Oct-17 00:31N 27°48' W 082°25'0 0.0
2014-Oct-16 23:31N 27°48' W 082°25'0 0.0
2014-Oct-16 22:31N 27°48' W 082°25'0 0.0
2014-Oct-16 21:31N 27°48' W 082°25'0 0.0
2014-Oct-16 20:31N 27°48' W 082°25'0 0.0
2014-Oct-16 19:28N 27°48' W 082°25'0 0.0
2014-Oct-16 18:31N 27°48' W 082°25'0 0.0
2014-Oct-16 17:22N 27°48' W 082°25'0 0.0
2014-Oct-16 16:31N 27°48' W 082°25'0 0.0
2014-Oct-16 15:31N 27°48' W 082°25'0 0.0
2014-Oct-16 14:31N 27°48' W 082°25'0 0.0
2014-Oct-16 13:31N 27°48' W 082°25'0 0.0
2014-Oct-16 12:31N 27°48' W 082°25'0 0.0
2014-Oct-16 11:28N 27°48' W 082°25'0 0.0
2014-Oct-16 10:31N 27°48' W 082°25'0 0.0
2014-Oct-16 09:31N 27°48' W 082°25'0 0.0
2014-Oct-16 08:31N 27°48' W 082°25'0 0.0
2014-Oct-16 07:31N 27°48' W 082°25'0 0.0
2014-Oct-16 06:31N 27°48' W 082°25'0 0.0
2014-Oct-16 05:31N 27°48' W 082°25'0 0.0
2014-Oct-16 04:31N 27°48' W 082°25'0 0.0
2014-Oct-16 03:31N 27°48' W 082°25'0 0.0
2014-Oct-16 02:31N 27°48' W 082°25'0 0.0
2014-Oct-16 01:25N 27°48' W 082°25'0 0.0
2014-Oct-16 00:31N 27°48' W 082°25'0 0.0
2014-Oct-15 23:31N 27°48' W 082°25'0 0.0
2014-Oct-15 22:31N 27°48' W 082°25'0 0.0
2014-Oct-15 21:31N 27°48' W 082°25'0 0.0
2014-Oct-15 20:31N 27°48' W 082°25'0 0.0
2014-Oct-15 19:31N 27°48' W 082°25'0 0.0
2014-Oct-15 18:31N 27°48' W 082°25'0 0.0
2014-Oct-15 17:31N 27°48' W 082°25'0 0.0
2014-Oct-15 16:31N 27°48' W 082°25'0 0.0
2014-Oct-15 15:31N 27°48' W 082°25'0 0.0
2014-Oct-15 14:31N 27°48' W 082°25'0 0.0
2014-Oct-15 13:31N 27°48' W 082°25'0 0.0
2014-Oct-15 12:31N 27°48' W 082°25'0 0.0
2014-Oct-15 11:31N 27°48' W 082°25'0 0.0
2014-Oct-15 10:31N 27°48' W 082°25'0 0.0
2014-Oct-15 09:31N 27°48' W 082°25'0 0.0
2014-Oct-15 08:31N 27°48' W 082°25'0 0.0
2014-Oct-15 07:31N 27°48' W 082°25'0 0.0
2014-Oct-15 06:31N 27°48' W 082°25'0 0.0
2014-Oct-15 05:31N 27°48' W 082°25'1 1.1
2014-Oct-15 04:33N 27°49' W 082°26'8 8.0
2014-Oct-15 03:34N 27°43' W 082°32'1211.6
2014-Oct-15 02:33N 27°36' W 082°43'1312.4
2014-Oct-15 01:33N 27°36' W 082°57'  
Track history (hours):
 
Tides and Currents Weather Stations Pressure Air Temp Water Temp Dewpoint Dewpoint Depression Visibility Wind Speed Wind Dir Waves Ship Positions

Mississippi Enterprise

Owner: U.S. United Ocean Services, LLC, Tampa, FL. More information available from US FCC via Universal Licensing System and Coast Guard Vessel Documentation Center.

Last reported at 2014-Oct-24 05:28 UTC. Time now 2014-Oct-25 22:52 UTC.
Position N 29°57' W 090°01'.

Length 187 m; draft 9.4 m.

Type: Cargo ship. MMSI: 369813000.

Date/timePositionNaut miles runAvg speedWind from/ knotsBaromVisibWave heightAir tempDewpointWater temp
2014-Oct-24 05:28N 29°57' W 090°01'3110.5
2014-Oct-24 02:33N 30°02' W 090°36'0 0.0
2014-Oct-23 14:19N 30°03' W 090°36'0 0.0
2014-Oct-23 13:31N 30°03' W 090°36'0 0.0
2014-Oct-23 12:31N 30°03' W 090°36'0 0.0
2014-Oct-23 11:28N 30°03' W 090°36'0 0.0
2014-Oct-23 10:28N 30°03' W 090°36'0 0.0
2014-Oct-23 09:28N 30°03' W 090°36'0 0.0
2014-Oct-23 08:31N 30°03' W 090°36'0 0.0
2014-Oct-23 07:28N 30°03' W 090°36'0 0.0
2014-Oct-23 06:31N 30°03' W 090°36'0 0.0
2014-Oct-23 03:28N 30°03' W 090°36'0 0.0
2014-Oct-23 00:19N 30°03' W 090°36'0 0.0
2014-Oct-22 14:13N 30°03' W 090°36'0 0.0
2014-Oct-22 13:31N 30°03' W 090°36'0 0.0
2014-Oct-22 12:31N 30°03' W 090°36'0 0.0
2014-Oct-22 08:28N 30°03' W 090°36'0 0.0
2014-Oct-22 05:19N 30°03' W 090°36'0 0.0
2014-Oct-21 12:25N 30°03' W 090°36'0 0.0
2014-Oct-21 11:31N 30°03' W 090°36'0 0.0
2014-Oct-21 10:28N 30°03' W 090°36'0 0.0
2014-Oct-21 09:28N 30°03' W 090°36'0 0.0
2014-Oct-21 08:31N 30°03' W 090°36'0 0.0
2014-Oct-21 07:31N 30°03' W 090°36'0 0.0
2014-Oct-21 06:28N 30°03' W 090°36'0 0.0
2014-Oct-21 04:04N 30°03' W 090°36'0 0.0
2014-Oct-21 03:28N 30°03' W 090°36'429 9.8
2014-Oct-19 07:33N 27°36' W 082°56'1312.7
2014-Oct-19 06:33N 27°37' W 082°42'1211.7
2014-Oct-19 05:33N 27°44' W 082°32'1010.2
2014-Oct-19 04:33N 27°53' W 082°26'2 1.9
2014-Oct-19 03:33N 27°55' W 082°25'0 0.0
2014-Oct-19 02:33N 27°55' W 082°25'0 0.0
2014-Oct-19 01:33N 27°55' W 082°25'0 0.0
2014-Oct-19 00:34N 27°55' W 082°25'0 0.0
2014-Oct-18 23:33N 27°55' W 082°25'0 0.0
2014-Oct-18 22:33N 27°55' W 082°25'0 0.0
2014-Oct-18 21:33N 27°55' W 082°25'0 0.0
2014-Oct-18 20:34N 27°55' W 082°25'0 0.0
2014-Oct-18 19:33N 27°55' W 082°25'0 0.0
2014-Oct-18 18:33N 27°55' W 082°25'0 0.0
2014-Oct-18 17:33N 27°55' W 082°25'0 0.0
2014-Oct-18 16:33N 27°55' W 082°25'0 0.0
2014-Oct-18 15:33N 27°55' W 082°25'0 0.0
2014-Oct-18 14:33N 27°55' W 082°25'0 0.0
2014-Oct-18 13:33N 27°55' W 082°25'0 0.0
2014-Oct-18 12:33N 27°55' W 082°25'0 0.0
2014-Oct-18 11:33N 27°55' W 082°25'0 0.0
2014-Oct-18 10:34N 27°55' W 082°25'0 0.0
2014-Oct-18 09:33N 27°55' W 082°25'0 0.0
2014-Oct-18 08:33N 27°55' W 082°25'0 0.0
2014-Oct-18 07:33N 27°55' W 082°25'0 0.0
2014-Oct-18 06:33N 27°55' W 082°25'0 0.0
2014-Oct-18 05:33N 27°55' W 082°25'0 0.0
2014-Oct-18 04:33N 27°55' W 082°25'0 0.0
2014-Oct-18 03:34N 27°55' W 082°25'0 0.0
2014-Oct-18 02:33N 27°55' W 082°25'0 0.0
2014-Oct-18 01:33N 27°55' W 082°25'0 0.0
2014-Oct-18 00:33N 27°55' W 082°25'0 0.0
2014-Oct-17 23:33N 27°55' W 082°25'0 0.2
2014-Oct-17 22:33N 27°55' W 082°25'0 0.0
2014-Oct-17 21:33N 27°55' W 082°25'0 0.0
2014-Oct-17 20:33N 27°55' W 082°25'0 0.0
2014-Oct-17 19:33N 27°55' W 082°25'0 0.0
2014-Oct-17 18:33N 27°55' W 082°25'0 0.0
2014-Oct-17 17:33N 27°55' W 082°25'0 0.0
2014-Oct-17 16:34N 27°55' W 082°25'0 0.0
2014-Oct-17 15:33N 27°55' W 082°25'0 0.0
2014-Oct-17 14:33N 27°55' W 082°25'1 0.9
2014-Oct-17 13:33N 27°54' W 082°26'6 6.1
2014-Oct-17 12:33N 27°48' W 082°25'1 0.6
2014-Oct-17 11:31N 27°48' W 082°25'0 0.0
2014-Oct-17 10:31N 27°48' W 082°25'0 0.0
2014-Oct-17 09:31N 27°48' W 082°25'0 0.0
2014-Oct-17 08:31N 27°48' W 082°25'0 0.0
2014-Oct-17 07:31N 27°48' W 082°25'0 0.0
2014-Oct-17 06:31N 27°48' W 082°25'0 0.0
2014-Oct-17 05:31N 27°48' W 082°25'0 0.0
2014-Oct-17 04:31N 27°48' W 082°25'0 0.0
2014-Oct-17 03:31N 27°48' W 082°25'0 0.0
2014-Oct-17 02:31N 27°48' W 082°25'0 0.0
2014-Oct-17 01:31N 27°48' W 082°25'0 0.0
2014-Oct-17 00:31N 27°48' W 082°25'0 0.0
2014-Oct-16 23:31N 27°48' W 082°25'0 0.0
2014-Oct-16 22:31N 27°48' W 082°25'0 0.0
2014-Oct-16 21:31N 27°48' W 082°25'0 0.0
2014-Oct-16 20:31N 27°48' W 082°25'0 0.0
2014-Oct-16 19:28N 27°48' W 082°25'0 0.0
2014-Oct-16 18:31N 27°48' W 082°25'0 0.0
2014-Oct-16 17:22N 27°48' W 082°25'0 0.0
2014-Oct-16 16:31N 27°48' W 082°25'0 0.0
2014-Oct-16 15:31N 27°48' W 082°25'0 0.0
2014-Oct-16 14:31N 27°48' W 082°25'0 0.0
2014-Oct-16 13:31N 27°48' W 082°25'0 0.0
2014-Oct-16 12:31N 27°48' W 082°25'0 0.0
2014-Oct-16 11:28N 27°48' W 082°25'0 0.0
2014-Oct-16 10:31N 27°48' W 082°25'0 0.0
2014-Oct-16 09:31N 27°48' W 082°25'0 0.0
2014-Oct-16 08:31N 27°48' W 082°25'0 0.0
2014-Oct-16 07:31N 27°48' W 082°25'0 0.0
2014-Oct-16 06:31N 27°48' W 082°25'0 0.0
2014-Oct-16 05:31N 27°48' W 082°25'0 0.0
2014-Oct-16 04:31N 27°48' W 082°25'0 0.0
2014-Oct-16 03:31N 27°48' W 082°25'0 0.0
2014-Oct-16 02:31N 27°48' W 082°25'0 0.0
2014-Oct-16 01:25N 27°48' W 082°25'0 0.0
2014-Oct-16 00:31N 27°48' W 082°25'0 0.0
2014-Oct-15 23:31N 27°48' W 082°25'0 0.0
2014-Oct-15 22:31N 27°48' W 082°25'0 0.0
2014-Oct-15 21:31N 27°48' W 082°25'0 0.0
2014-Oct-15 20:31N 27°48' W 082°25'0 0.0
2014-Oct-15 19:31N 27°48' W 082°25'0 0.0
2014-Oct-15 18:31N 27°48' W 082°25'0 0.0
2014-Oct-15 17:31N 27°48' W 082°25'0 0.0
2014-Oct-15 16:31N 27°48' W 082°25'0 0.0
2014-Oct-15 15:31N 27°48' W 082°25'0 0.0
2014-Oct-15 14:31N 27°48' W 082°25'0 0.0
2014-Oct-15 13:31N 27°48' W 082°25'0 0.0
2014-Oct-15 12:31N 27°48' W 082°25'0 0.0
2014-Oct-15 11:31N 27°48' W 082°25'0 0.0
2014-Oct-15 10:31N 27°48' W 082°25'0 0.0
2014-Oct-15 09:31N 27°48' W 082°25'0 0.0
2014-Oct-15 08:31N 27°48' W 082°25'0 0.0
2014-Oct-15 07:31N 27°48' W 082°25'0 0.0
2014-Oct-15 06:31N 27°48' W 082°25'0 0.0
2014-Oct-15 05:31N 27°48' W 082°25'1 1.1
2014-Oct-15 04:33N 27°49' W 082°26'8 8.0
2014-Oct-15 03:34N 27°43' W 082°32'1211.6
2014-Oct-15 02:33N 27°36' W 082°43'1312.4
2014-Oct-15 01:33N 27°36' W 082°57'  

Dump ship's entire track history